Time;durP1;ratioP1;P1;durP2;ratioP2;P2;SDS_P1;SDS_P2;PMS_P1;PMS_P2;Temp;Humidity;BMP_temperature;BMP_pressure;BME280_temperature;BME280_humidity;BME280_pressure;Samples;Min_cycle;Max_cycle;Signal;HPM_P1;HPM_P2
2020/12/17 00:00:28;;;;;;;23.80;14.97;;;5.40;99.90;;;;;;4864903;29;20195;-94
2020/12/17 00:02:54;;;;;;;24.53;16.10;;;5.30;99.90;;;;;;4864682;29;20216;-96
2020/12/17 00:05:20;;;;;;;27.23;16.80;;;5.20;99.90;;;;;;4864674;29;20192;-94
2020/12/17 00:07:46;;;;;;;29.83;16.77;;;5.20;99.90;;;;;;4864649;29;20214;-96
2020/12/17 00:10:13;;;;;;;24.20;16.80;;;5.20;99.90;;;;;;4864226;29;20258;-94
2020/12/17 00:12:42;;;;;;;29.90;17.27;;;5.20;99.90;;;;;;4899592;29;20186;-94
2020/12/17 00:15:11;;;;;;;25.17;16.40;;;5.20;99.90;;;;;;4883174;29;20639;-94
2020/12/17 00:18:03;;;;;;;35.17;17.77;;;5.30;99.90;;;;;;4886548;29;20550;-96
2020/12/17 00:20:28;;;;;;;30.23;17.60;;;5.30;99.90;;;;;;4900453;29;20230;-95
2020/12/17 00:22:54;;;;;;;26.67;16.90;;;5.30;99.90;;;;;;4903094;29;20187;-94
2020/12/17 00:25:23;;;;;;;27.10;16.77;;;5.30;99.90;;;;;;4886427;29;20777;-95
2020/12/17 00:27:51;;;;;;;26.17;17.00;;;5.30;99.90;;;;;;4886360;29;20191;-95
2020/12/17 00:30:17;;;;;;;29.77;17.97;;;5.30;99.90;;;;;;4886126;29;20211;-95
2020/12/17 00:32:44;;;;;;;26.63;16.57;;;5.30;99.90;;;;;;4886415;29;20187;-95
2020/12/17 00:35:32;;;;;;;26.23;16.67;;;5.30;99.90;;;;;;4886276;29;20515;-96
2020/12/17 00:37:58;;;;;;;27.20;16.63;;;5.30;99.90;;;;;;4886389;29;20216;-91
2020/12/17 00:40:24;;;;;;;25.00;16.30;;;5.30;99.90;;;;;;4886319;29;20203;-95
2020/12/17 00:42:49;;;;;;;25.97;16.27;;;5.30;99.90;;;;;;4886171;29;20246;-95
2020/12/17 00:45:28;;;;;;;25.90;16.97;;;5.30;99.90;;;;;;4886214;29;20235;-94
2020/12/17 00:47:54;;;;;;;24.17;15.97;;;5.30;99.90;;;;;;4886225;29;20630;-95
2020/12/17 00:50:20;;;;;;;26.40;16.40;;;5.30;99.90;;;;;;4903401;29;20298;-96
2020/12/17 00:52:45;;;;;;;25.17;16.40;;;5.30;99.90;;;;;;4886609;29;20627;-96
2020/12/17 00:55:25;;;;;;;25.27;15.90;;;5.30;99.90;;;;;;4888532;29;20274;-96
2020/12/17 00:57:51;;;;;;;23.67;16.10;;;5.30;99.90;;;;;;4886958;29;20182;-95
2020/12/17 01:00:17;;;;;;;25.57;15.23;;;5.30;99.90;;;;;;4886421;29;20180;-96
2020/12/17 01:02:43;;;;;;;22.13;14.90;;;5.30;99.90;;;;;;4886347;29;20201;-96
2020/12/17 01:05:19;;;;;;;23.13;14.47;;;5.20;99.90;;;;;;4885896;29;20187;-91
2020/12/17 01:07:45;;;;;;;23.10;14.53;;;5.20;99.90;;;;;;4902924;29;20679;-95
2020/12/17 01:10:10;;;;;;;22.87;14.70;;;5.20;99.90;;;;;;4885604;29;20207;-96
2020/12/17 01:12:40;;;;;;;24.57;14.87;;;5.20;99.90;;;;;;4885803;29;20278;-96
2020/12/17 01:15:15;;;;;;;18.83;12.43;;;5.20;99.90;;;;;;4885841;29;20179;-95
2020/12/17 01:17:41;;;;;;;20.43;12.93;;;5.20;99.90;;;;;;4902539;29;20633;-96
2020/12/17 01:20:06;;;;;;;24.10;15.07;;;5.20;99.90;;;;;;4885305;29;20255;-96
2020/12/17 01:22:32;;;;;;;22.23;14.23;;;5.20;99.90;;;;;;4885749;29;20533;-95
2020/12/17 01:25:26;;;;;;;20.70;13.83;;;5.20;99.90;;;;;;4885944;29;20614;-94
2020/12/17 01:27:52;;;;;;;21.57;14.27;;;5.30;99.90;;;;;;4885004;29;20183;-95
2020/12/17 01:30:17;;;;;;;22.97;13.53;;;5.30;99.90;;;;;;4902157;29;20270;-94
2020/12/17 01:32:43;;;;;;;18.43;13.07;;;5.20;99.90;;;;;;4885447;29;20211;-93
2020/12/17 01:35:10;;;;;;;18.27;12.03;;;5.20;99.90;;;;;;4902226;29;20187;-96
2020/12/17 01:37:36;;;;;;;17.67;12.03;;;5.20;99.90;;;;;;4885383;29;20274;-95
2020/12/17 01:40:03;;;;;;;16.63;12.10;;;5.20;99.90;;;;;;4885021;29;20214;-95
2020/12/17 01:42:29;;;;;;;17.57;11.83;;;5.20;99.90;;;;;;4884959;29;20202;-95
2020/12/17 01:45:03;;;;;;;17.37;12.00;;;5.10;99.90;;;;;;4885164;29;20603;-95
2020/12/17 01:47:35;;;;;;;18.60;11.90;;;5.00;99.90;;;;;;4885545;29;20183;-96
2020/12/17 01:50:04;;;;;;;17.10;12.13;;;5.00;99.90;;;;;;4901652;29;20199;-95
2020/12/17 01:52:29;;;;;;;15.80;11.70;;;5.00;99.90;;;;;;4901922;29;20183;-96
2020/12/17 01:55:01;;;;;;;18.00;11.77;;;5.00;99.90;;;;;;4886574;29;20627;-96
2020/12/17 01:57:31;;;;;;;18.77;12.13;;;5.00;99.90;;;;;;4884770;29;20267;-96
2020/12/17 02:00:02;;;;;;;18.47;12.63;;;5.00;99.90;;;;;;4884991;29;20175;-96
2020/12/17 02:02:31;;;;;;;19.30;12.40;;;5.00;99.90;;;;;;4885202;29;20194;-96
2020/12/17 02:04:59;;;;;;;18.70;12.10;;;5.00;99.90;;;;;;4885686;29;20247;-96
2020/12/17 02:07:25;;;;;;;18.13;11.47;;;5.00;99.90;;;;;;4901423;29;20483;-95
2020/12/17 02:09:51;;;;;;;18.70;11.57;;;5.00;99.90;;;;;;4884612;29;20206;-90
2020/12/17 02:12:16;;;;;;;21.67;12.63;;;4.90;99.90;;;;;;5293558;23;20641;-93
2020/12/17 02:14:42;;;;;;;15.73;11.67;;;4.90;99.90;;;;;;4900950;29;20187;-93
2020/12/17 02:17:08;;;;;;;18.40;12.37;;;4.90;99.90;;;;;;4884625;29;20183;-93
2020/12/17 02:19:34;;;;;;;16.97;12.47;;;4.90;99.90;;;;;;4884557;29;20179;-93
2020/12/17 02:22:00;;;;;;;23.27;13.67;;;4.90;99.90;;;;;;4884586;29;20183;-93
2020/12/17 02:24:39;;;;;;;20.30;12.80;;;5.00;99.90;;;;;;4901182;29;20518;-93
2020/12/17 02:27:04;;;;;;;17.40;12.33;;;5.00;99.90;;;;;;4884335;29;20191;-93
2020/12/17 02:29:31;;;;;;;20.33;12.83;;;4.90;99.90;;;;;;4884855;29;20215;-93
2020/12/17 02:31:56;;;;;;;20.40;12.50;;;4.90;99.90;;;;;;4884488;29;20191;-92
2020/12/17 02:34:28;;;;;;;16.23;11.63;;;5.00;99.90;;;;;;4884271;29;20190;-94
2020/12/17 02:36:54;;;;;;;17.20;11.93;;;5.00;99.90;;;;;;4884256;29;20187;-93
2020/12/17 02:39:20;;;;;;;19.67;12.03;;;5.00;99.90;;;;;;4883402;29;20568;-93
2020/12/17 02:41:45;;;;;;;16.00;11.53;;;5.00;99.90;;;;;;4883912;29;20219;-93
2020/12/17 02:44:17;;;;;;;17.07;11.77;;;5.10;99.90;;;;;;4866100;29;20624;-93
2020/12/17 02:46:43;;;;;;;16.07;10.87;;;5.10;99.90;;;;;;4865391;29;20223;-92
2020/12/17 02:49:08;;;;;;;18.23;13.10;;;5.10;99.90;;;;;;4865346;29;20554;-93
2020/12/17 02:51:38;;;;;;;18.23;12.07;;;5.10;99.90;;;;;;4865584;29;20331;-94
2020/12/17 02:54:11;;;;;;;19.47;12.63;;;5.10;99.90;;;;;;4865371;29;20198;-93
2020/12/17 02:56:36;;;;;;;17.13;11.53;;;5.10;99.90;;;;;;4865344;29;20214;-93
2020/12/17 02:59:03;;;;;;;18.40;11.30;;;5.10;99.90;;;;;;4865045;29;20215;-94
2020/12/17 03:01:28;;;;;;;17.57;12.07;;;5.20;99.90;;;;;;4865130;29;20188;-94
2020/12/17 03:03:55;;;;;;;20.80;12.53;;;5.20;99.90;;;;;;4865195;29;20255;-93
2020/12/17 03:06:21;;;;;;;16.70;12.10;;;5.20;99.90;;;;;;4865209;29;20192;-93
2020/12/17 03:08:47;;;;;;;18.83;12.77;;;5.20;99.90;;;;;;4865050;29;20201;-93
2020/12/17 03:11:13;;;;;;;22.07;12.30;;;5.20;99.90;;;;;;4864860;29;20336;-93
2020/12/17 03:13:42;;;;;;;17.50;12.40;;;5.20;99.90;;;;;;4878061;29;20325;-93
2020/12/17 03:16:08;;;;;;;20.87;11.83;;;5.30;99.90;;;;;;4883502;29;20211;-92
2020/12/17 03:18:34;;;;;;;18.83;12.47;;;5.20;99.90;;;;;;4883704;29;20183;-92
2020/12/17 03:20:59;;;;;;;18.70;12.90;;;5.30;99.90;;;;;;4883549;29;20645;-93
2020/12/17 03:23:26;;;;;;;16.00;11.43;;;5.30;99.90;;;;;;4883374;29;20180;-93
2020/12/17 03:25:52;;;;;;;16.97;11.47;;;5.30;99.90;;;;;;4883059;29;20182;-93
2020/12/17 03:28:21;;;;;;;15.27;10.77;;;5.30;99.90;;;;;;4899595;29;20180;-93
2020/12/17 03:30:47;;;;;;;17.30;11.50;;;5.30;99.90;;;;;;4899827;29;20215;-93
2020/12/17 03:33:12;;;;;;;17.90;11.67;;;5.30;99.90;;;;;;4883414;29;20274;-93
2020/12/17 03:35:38;;;;;;;20.80;12.80;;;5.30;99.90;;;;;;4900134;29;20188;-93
2020/12/17 03:38:04;;;;;;;17.73;12.13;;;5.20;99.90;;;;;;4883446;29;20183;-92
2020/12/17 03:40:30;;;;;;;17.77;12.03;;;5.30;99.90;;;;;;4899952;29;20262;-93
2020/12/17 03:42:56;;;;;;;17.57;11.90;;;5.30;99.90;;;;;;4883129;29;20555;-93
2020/12/17 03:45:23;;;;;;;17.03;11.63;;;5.30;99.90;;;;;;4883239;29;20183;-92
2020/12/17 03:47:49;;;;;;;23.53;13.07;;;5.30;99.90;;;;;;4883252;29;20171;-92
2020/12/17 03:50:15;;;;;;;18.40;12.13;;;5.30;99.90;;;;;;4885233;29;20218;-93
2020/12/17 03:52:40;;;;;;;16.80;11.53;;;5.30;99.90;;;;;;4887584;29;20183;-93
2020/12/17 03:55:07;;;;;;;17.53;11.77;;;5.40;99.90;;;;;;4903694;29;20183;-93
2020/12/17 03:57:33;;;;;;;17.80;12.20;;;5.30;99.90;;;;;;4886870;29;20194;-94
2020/12/17 03:59:59;;;;;;;18.47;12.67;;;5.30;99.90;;;;;;4886785;29;20180;-93
2020/12/17 04:02:24;;;;;;;16.00;11.57;;;5.40;99.90;;;;;;4887152;29;20183;-93
2020/12/17 04:04:52;;;;;;;15.60;11.33;;;5.30;99.90;;;;;;4886976;29;20179;-93
2020/12/17 04:07:18;;;;;;;15.60;11.10;;;5.30;99.90;;;;;;4886724;29;20622;-93
2020/12/17 04:09:44;;;;;;;20.63;11.97;;;5.40;99.90;;;;;;4886836;29;20259;-93
2020/12/17 04:12:10;;;;;;;18.03;12.07;;;5.40;99.90;;;;;;4886742;29;20235;-92
2020/12/17 04:14:40;;;;;;;18.20;12.30;;;5.40;99.90;;;;;;4886670;29;20183;-92
2020/12/17 04:17:06;;;;;;;18.33;11.57;;;5.50;99.90;;;;;;4886809;29;20180;-92
2020/12/17 04:19:31;;;;;;;16.20;11.33;;;5.60;99.90;;;;;;4886357;29;20183;-94
2020/12/17 04:21:57;;;;;;;14.23;10.33;;;5.70;99.90;;;;;;4890903;29;20163;-96
2020/12/17 04:27:45;;;;;;;19.77;12.30;;;5.60;99.90;;;;;;4924208;29;20178;-92
2020/12/17 04:30:52;;;;;;;19.80;11.93;;;5.60;99.90;;;;;;4908520;29;20207;-94
2020/12/17 04:33:18;;;;;;;17.07;12.40;;;5.60;99.90;;;;;;4898553;29;20202;-94
2020/12/17 04:35:52;;;;;;;21.10;12.30;;;5.70;99.90;;;;;;4891423;29;20179;-94
2020/12/17 04:38:17;;;;;;;17.97;11.77;;;5.70;99.90;;;;;;4896099;29;20611;-95
2020/12/17 04:40:43;;;;;;;18.00;12.07;;;5.80;99.90;;;;;;4906027;29;20269;-95
2020/12/17 04:43:09;;;;;;;17.87;12.63;;;5.80;99.90;;;;;;4907738;29;20175;-94
2020/12/17 04:45:53;;;;;;;18.43;12.67;;;5.90;99.90;;;;;;4905830;29;20195;-94
2020/12/17 04:48:24;;;;;;;17.70;11.67;;;5.90;99.90;;;;;;4890785;29;20187;-94
2020/12/17 04:50:50;;;;;;;17.10;11.90;;;6.00;99.90;;;;;;4903676;29;20225;-93
2020/12/17 04:53:17;;;;;;;16.77;11.87;;;6.00;99.90;;;;;;4890276;29;20274;-93
2020/12/17 04:55:56;;;;;;;18.03;11.60;;;6.00;99.90;;;;;;4888660;29;20188;-94
2020/12/17 04:58:22;;;;;;;14.23;10.57;;;6.00;99.90;;;;;;4889186;29;20179;-93
2020/12/17 05:00:54;;;;;;;16.30;11.37;;;6.00;99.90;;;;;;4889515;29;20184;-93
2020/12/17 05:03:23;;;;;;;17.57;11.27;;;5.90;99.90;;;;;;4889483;29;20191;-93
2020/12/17 05:06:06;;;;;;;16.17;11.10;;;5.90;99.90;;;;;;4889421;29;20275;-92
2020/12/17 05:08:31;;;;;;;18.70;11.57;;;5.90;99.90;;;;;;4889617;29;20607;-93
2020/12/17 05:10:57;;;;;;;16.90;11.03;;;5.90;99.90;;;;;;4889372;29;20219;-93
2020/12/17 05:13:23;;;;;;;16.33;11.23;;;5.90;99.90;;;;;;4873910;29;20239;-93
2020/12/17 05:15:51;;;;;;;17.30;11.67;;;6.00;99.90;;;;;;4906799;29;20274;-93
2020/12/17 05:18:18;;;;;;;15.90;11.30;;;6.00;99.90;;;;;;4874065;29;20183;-93
2020/12/17 05:20:44;;;;;;;16.40;11.77;;;6.00;99.90;;;;;;4889295;29;20290;-94
2020/12/17 05:23:11;;;;;;;17.60;11.70;;;6.00;99.90;;;;;;4873468;29;20191;-92
2020/12/17 05:25:39;;;;;;;16.80;10.70;;;6.00;99.90;;;;;;4889252;29;20541;-93
2020/12/17 05:28:05;;;;;;;16.37;11.67;;;6.10;99.90;;;;;;4888930;29;20183;-91
2020/12/17 05:30:32;;;;;;;16.83;11.37;;;6.10;99.90;;;;;;4888798;29;20215;-93
2020/12/17 05:33:01;;;;;;;15.47;10.80;;;6.10;99.90;;;;;;4889885;29;20199;-93
2020/12/17 05:35:40;;;;;;;17.40;11.03;;;6.10;99.90;;;;;;4890434;29;20239;-94
2020/12/17 05:38:10;;;;;;;17.27;10.33;;;6.10;99.90;;;;;;4890351;29;20656;-93
2020/12/17 05:40:37;;;;;;;15.20;11.00;;;6.10;99.90;;;;;;4890033;29;20183;-92
2020/12/17 05:43:07;;;;;;;14.97;10.30;;;6.10;99.90;;;;;;4907681;29;20246;-92
2020/12/17 05:45:38;;;;;;;15.23;10.23;;;6.20;99.90;;;;;;4890178;29;20191;-93
2020/12/17 05:48:23;;;;;;;13.60;10.00;;;6.20;99.90;;;;;;4875267;29;20192;-94
2020/12/17 05:50:59;;;;;;;13.93;10.17;;;6.10;99.90;;;;;;4890237;29;20555;-94
2020/12/17 05:53:39;;;;;;;14.37;9.93;;;6.10;99.90;;;;;;4875313;29;20253;-92
2020/12/17 05:56:17;;;;;;;15.33;10.10;;;6.10;99.90;;;;;;4907226;29;20200;-92
2020/12/17 05:58:44;;;;;;;15.77;10.07;;;6.00;99.90;;;;;;4889630;29;20206;-93
2020/12/17 06:01:27;;;;;;;14.17;10.43;;;6.00;99.90;;;;;;4907300;29;20631;-93
2020/12/17 06:03:53;;;;;;;14.10;9.80;;;6.00;99.90;;;;;;4890281;29;20179;-93
2020/12/17 06:06:20;;;;;;;12.40;9.13;;;6.00;99.90;;;;;;4890103;29;20187;-93
2020/12/17 06:08:51;;;;;;;16.17;10.47;;;6.00;99.90;;;;;;4895757;29;20186;-92
2020/12/17 06:11:21;;;;;;;12.93;8.90;;;5.90;99.90;;;;;;4914906;29;20274;-94
2020/12/17 06:13:57;;;;;;;13.73;9.70;;;6.00;99.90;;;;;;4897498;29;20303;-93
2020/12/17 06:16:27;;;;;;;13.03;10.00;;;6.00;99.90;;;;;;4892371;29;20195;-93
2020/12/17 06:18:58;;;;;;;13.47;9.27;;;5.90;99.90;;;;;;4889211;29;20179;-93
2020/12/17 06:21:28;;;;;;;12.30;9.27;;;6.00;99.90;;;;;;4873783;29;20183;-94
2020/12/17 06:23:59;;;;;;;14.83;9.80;;;5.90;99.90;;;;;;4873266;29;20191;-92
2020/12/17 06:26:26;;;;;;;13.27;9.57;;;5.90;99.90;;;;;;4888534;29;20242;-93
2020/12/17 06:28:54;;;;;;;15.77;9.40;;;6.00;99.90;;;;;;4889393;29;20175;-93
2020/12/17 06:31:26;;;;;;;16.67;9.60;;;6.00;99.90;;;;;;4873594;29;20227;-93
2020/12/17 06:34:03;;;;;;;13.30;10.23;;;6.00;99.90;;;;;;4889390;29;20194;-92
2020/12/17 06:36:42;;;;;;;13.03;9.20;;;5.90;99.90;;;;;;4889735;29;20512;-95
2020/12/17 06:39:08;;;;;;;12.10;8.57;;;5.90;99.90;;;;;;4889186;29;20179;-93
2020/12/17 06:41:34;;;;;;;12.97;9.33;;;5.90;99.90;;;;;;4874285;29;20210;-92
2020/12/17 06:44:00;;;;;;;11.90;8.90;;;5.90;99.90;;;;;;4905960;29;20250;-92
2020/12/17 06:49:36;;;;;;;12.33;8.53;;;5.90;99.90;;;;;;4925032;29;20606;-93
2020/12/17 06:52:07;;;;;;;14.77;8.83;;;5.90;99.90;;;;;;4906420;29;20272;-93
2020/12/17 06:54:34;;;;;;;11.43;8.27;;;6.00;99.90;;;;;;4904767;29;20186;-95
2020/12/17 06:57:16;;;;;;;10.30;7.87;;;5.90;99.90;;;;;;4903842;29;20254;-94
2020/12/17 06:59:44;;;;;;;13.20;8.53;;;6.00;99.90;;;;;;4887239;29;20171;-93
2020/12/17 07:02:14;;;;;;;11.97;8.40;;;6.00;99.90;;;;;;4886733;29;20193;-94
2020/12/17 07:04:48;;;;;;;12.23;8.77;;;6.10;99.90;;;;;;4885828;29;20179;-94
2020/12/17 07:07:52;;;;;;;13.30;8.90;;;6.10;99.90;;;;;;4889034;29;20188;-95
2020/12/17 07:10:27;;;;;;;13.03;8.73;;;6.10;99.90;;;;;;4890323;29;20563;-96
2020/12/17 07:12:53;;;;;;;13.20;9.27;;;6.10;99.90;;;;;;4894884;29;20230;-93
2020/12/17 07:15:37;;;;;;;12.93;8.73;;;6.20;99.90;;;;;;4906600;29;20197;-95
2020/12/17 07:18:22;;;;;;;13.47;9.57;;;6.20;99.90;;;;;;4906606;29;20269;-94
2020/12/17 07:20:53;;;;;;;12.97;9.20;;;6.30;99.90;;;;;;4875690;29;20187;-93
2020/12/17 07:23:20;;;;;;;13.47;9.07;;;6.30;99.90;;;;;;4886426;29;20610;-92
2020/12/17 07:25:52;;;;;;;14.33;9.23;;;6.30;99.90;;;;;;4889934;29;20187;-92
2020/12/17 07:28:23;;;;;;;11.67;8.50;;;6.30;99.90;;;;;;4893659;29;20186;-92
2020/12/17 07:30:55;;;;;;;13.33;8.67;;;6.30;99.90;;;;;;4882862;29;20316;-93
2020/12/17 07:33:36;;;;;;;11.20;8.47;;;6.40;99.90;;;;;;4873565;29;20192;-91
2020/12/17 07:36:11;;;;;;;11.83;8.53;;;6.40;99.90;;;;;;4865394;29;20623;-94
2020/12/17 07:38:39;;;;;;;11.00;7.87;;;6.40;99.90;;;;;;4865489;29;20180;-94
2020/12/17 07:44:41;;;;;;;13.10;8.40;;;6.40;99.90;;;;;;4897954;29;20286;-94
2020/12/17 07:47:23;;;;;;;12.17;8.33;;;6.30;99.90;;;;;;4886143;29;20175;-96
2020/12/17 07:49:50;;;;;;;13.17;8.60;;;6.30;99.90;;;;;;4902203;29;20217;-95
2020/12/17 07:52:31;;;;;;;12.83;8.40;;;6.30;99.90;;;;;;4886157;29;20532;-94
2020/12/17 07:54:58;;;;;;;13.47;8.80;;;6.20;99.90;;;;;;4871117;29;20194;-94
2020/12/17 07:57:33;;;;;;;11.67;7.20;;;6.30;99.90;;;;;;4885614;29;20242;-94
2020/12/17 08:00:00;;;;;;;10.70;7.67;;;6.40;99.90;;;;;;4884909;29;20576;-92
2020/12/17 08:02:26;;;;;;;13.00;7.07;;;6.50;99.90;;;;;;4878054;29;20211;-91
2020/12/17 08:04:56;;;;;;;10.37;7.00;;;6.50;99.90;;;;;;4882864;29;20203;-91
2020/12/17 08:07:29;;;;;;;10.27;5.70;;;6.70;99.90;;;;;;4866528;29;20188;-91
2020/12/17 08:09:59;;;;;;;8.23;5.73;;;6.90;99.90;;;;;;4876966;29;20216;-95
2020/12/17 08:12:25;;;;;;;9.43;6.27;;;7.00;99.90;;;;;;4862855;29;20246;-95
2020/12/17 08:14:53;;;;;;;7.47;5.80;;;7.10;99.90;;;;;;4909912;29;20191;-96
2020/12/17 08:17:21;;;;;;;11.27;6.07;;;7.30;99.90;;;;;;4889895;29;20184;-96
2020/12/17 08:19:57;;;;;;;8.37;6.07;;;7.40;99.90;;;;;;4892053;29;20227;-94
2020/12/17 08:22:28;;;;;;;8.97;6.07;;;7.40;99.90;;;;;;4889687;29;20179;-96
2020/12/17 08:24:54;;;;;;;8.27;5.30;;;7.40;99.90;;;;;;4892293;29;20188;-96
2020/12/17 08:27:25;;;;;;;8.17;5.97;;;7.50;99.90;;;;;;4893875;29;20187;-96
2020/12/17 08:29:51;;;;;;;8.10;5.93;;;7.60;99.90;;;;;;4890843;29;20303;-96
2020/12/17 08:32:17;;;;;;;12.20;6.27;;;7.60;99.90;;;;;;4895181;29;20187;-96
2020/12/17 08:34:54;;;;;;;9.73;5.97;;;7.50;99.90;;;;;;4892469;29;20190;-96
2020/12/17 08:37:22;;;;;;;9.93;6.43;;;7.50;99.90;;;;;;4878506;29;20195;-96
2020/12/17 08:40:04;;;;;;;7.77;5.93;;;7.60;99.90;;;;;;4897754;29;20203;-96
2020/12/17 08:42:35;;;;;;;10.53;6.07;;;7.60;99.90;;;;;;4899602;29;20709;-92
2020/12/17 08:45:10;;;;;;;8.20;6.13;;;7.60;99.90;;;;;;4901060;29;20235;-95
2020/12/17 08:47:42;;;;;;;9.83;6.37;;;7.60;99.90;;;;;;4895905;29;20175;-96
2020/12/17 08:50:09;;;;;;;8.43;5.97;;;7.60;99.90;;;;;;4883637;29;20710;-92
2020/12/17 08:52:35;;;;;;;9.67;6.30;;;7.60;99.90;;;;;;4885512;29;20184;-90
2020/12/17 08:55:06;;;;;;;9.23;5.87;;;7.70;99.90;;;;;;4884400;29;20247;-93
2020/12/17 08:58:02;;;;;;;9.63;6.17;;;7.70;99.90;;;;;;4876036;29;20207;-91
2020/12/17 09:00:30;;;;;;;9.53;6.50;;;7.80;99.90;;;;;;4872352;29;20184;-90
2020/12/17 09:02:59;;;;;;;12.20;7.93;;;7.90;99.90;;;;;;4871532;29;20199;-90
2020/12/17 09:05:25;;;;;;;12.90;7.73;;;8.10;99.90;;;;;;4873798;29;20207;-90
2020/12/17 09:08:05;;;;;;;10.37;7.20;;;8.30;99.90;;;;;;4877896;29;20183;-89
2020/12/17 09:10:38;;;;;;;13.43;8.37;;;8.40;99.90;;;;;;4895958;29;20238;-89
2020/12/17 09:13:04;;;;;;;10.53;7.33;;;8.40;99.90;;;;;;4897293;29;20318;-88
2020/12/17 09:15:29;;;;;;;12.17;7.87;;;8.40;99.90;;;;;;4867579;29;20187;-90
2020/12/17 09:18:09;;;;;;;13.87;8.00;;;8.50;99.90;;;;;;4894703;29;20199;-93
2020/12/17 09:20:37;;;;;;;11.53;7.40;;;8.60;99.90;;;;;;4891538;29;20190;-90
2020/12/17 09:23:10;;;;;;;16.63;8.27;;;8.60;99.90;;;;;;4908207;29;20184;-96
2020/12/17 09:25:36;;;;;;;13.53;7.83;;;8.70;99.90;;;;;;4883088;29;20183;-94
2020/12/17 09:28:17;;;;;;;11.27;7.10;;;8.70;99.90;;;;;;4893079;29;20175;-93
2020/12/17 09:30:43;;;;;;;13.50;7.90;;;8.60;99.90;;;;;;4893582;29;20226;-91
2020/12/17 09:33:09;;;;;;;12.53;8.00;;;8.60;99.90;;;;;;4895043;29;20248;-94
2020/12/17 09:35:36;;;;;;;14.30;8.53;;;8.60;99.90;;;;;;4892294;29;20604;-90
2020/12/17 09:38:19;;;;;;;13.50;7.97;;;8.60;99.90;;;;;;4893043;29;20213;-94
2020/12/17 09:40:52;;;;;;;15.27;9.13;;;8.60;99.90;;;;;;4897986;29;20206;-93
2020/12/17 09:43:17;;;;;;;22.57;8.67;;;8.60;99.90;;;;;;4895786;29;20192;-92
2020/12/17 09:45:50;;;;;;;14.00;8.80;;;8.70;99.90;;;;;;4895078;29;20191;-96
2020/12/17 09:48:36;;;;;;;13.43;8.37;;;8.70;99.90;;;;;;4892894;29;20194;-93
2020/12/17 09:51:04;;;;;;;10.77;7.63;;;8.70;99.90;;;;;;4890847;29;20226;-96
2020/12/17 09:53:39;;;;;;;14.00;8.63;;;8.70;99.90;;;;;;4890860;29;20524;-94
2020/12/17 09:56:09;;;;;;;14.37;7.70;;;8.70;99.90;;;;;;4890019;29;20324;-95
2020/12/17 09:58:50;;;;;;;14.10;8.07;;;8.80;99.90;;;;;;4886640;29;20213;-96
2020/12/17 10:01:16;;;;;;;11.53;7.73;;;8.80;99.90;;;;;;4884703;29;20682;-91
2020/12/17 10:03:42;;;;;;;11.20;7.23;;;8.80;99.90;;;;;;4884817;29;20214;-93
2020/12/17 10:06:07;;;;;;;10.20;7.53;;;8.70;99.90;;;;;;4884448;29;20175;-92
2020/12/17 10:08:38;;;;;;;11.10;7.40;;;8.80;99.90;;;;;;4901362;29;20520;-92
2020/12/17 10:11:06;;;;;;;12.33;8.00;;;8.70;99.90;;;;;;4900321;29;20219;-96
2020/12/17 10:13:31;;;;;;;13.77;7.90;;;8.80;99.90;;;;;;4885251;29;20231;-95
2020/12/17 10:15:57;;;;;;;13.93;8.00;;;8.80;99.90;;;;;;4885089;29;20190;-90
2020/12/17 10:18:43;;;;;;;10.07;7.50;;;8.70;99.90;;;;;;4883670;29;20641;-88
2020/12/17 10:21:10;;;;;;;11.67;7.30;;;8.70;99.90;;;;;;4883619;29;20180;-91
2020/12/17 10:23:36;;;;;;;11.70;7.43;;;8.70;99.90;;;;;;4900413;29;20254;-93
2020/12/17 10:26:02;;;;;;;9.53;7.13;;;8.70;99.90;;;;;;4900236;29;20543;-89
2020/12/17 10:28:29;;;;;;;10.43;7.60;;;8.70;99.90;;;;;;4902033;29;20307;-91
2020/12/17 10:30:55;;;;;;;11.07;7.47;;;8.80;99.90;;;;;;4901461;29;20211;-90
2020/12/17 10:33:20;;;;;;;10.80;7.50;;;8.80;99.90;;;;;;4883644;29;20270;-89
2020/12/17 10:35:46;;;;;;;11.70;7.60;;;8.70;99.90;;;;;;4865061;29;20668;-92
2020/12/17 10:38:20;;;;;;;9.83;7.00;;;8.70;99.90;;;;;;4881475;29;20183;-93
2020/12/17 10:40:45;;;;;;;10.57;7.80;;;8.70;99.90;;;;;;4864721;29;20184;-94
2020/12/17 10:43:11;;;;;;;10.70;7.53;;;8.70;99.90;;;;;;4874782;29;20278;-93
2020/12/17 10:45:37;;;;;;;11.57;7.63;;;8.60;99.90;;;;;;4899645;29;20187;-92
2020/12/17 10:48:04;;;;;;;10.13;7.60;;;8.70;99.90;;;;;;4899968;29;20183;-93
2020/12/17 10:50:29;;;;;;;10.40;7.13;;;8.70;99.90;;;;;;4883277;29;20318;-93
2020/12/17 10:52:55;;;;;;;12.43;8.30;;;8.80;99.90;;;;;;4883382;29;20278;-92
2020/12/17 10:55:21;;;;;;;11.27;7.70;;;8.80;99.90;;;;;;4883186;29;20254;-92
2020/12/17 10:57:48;;;;;;;9.90;7.13;;;8.70;99.90;;;;;;4883462;29;20182;-92
2020/12/17 11:00:14;;;;;;;13.70;8.17;;;8.80;99.90;;;;;;4898788;29;20168;-92
2020/12/17 11:02:40;;;;;;;10.50;7.63;;;8.70;99.90;;;;;;4883007;29;20533;-93
2020/12/17 11:05:06;;;;;;;11.13;7.80;;;8.70;99.90;;;;;;4883172;29;20184;-91
2020/12/17 11:07:31;;;;;;;10.23;7.77;;;8.70;99.90;;;;;;4882948;29;20187;-93
2020/12/17 11:09:57;;;;;;;12.50;7.57;;;8.70;99.90;;;;;;4882742;29;20566;-91
2020/12/17 11:12:23;;;;;;;11.47;7.80;;;8.70;99.90;;;;;;4849804;29;1087830;-90
2020/12/17 11:14:49;;;;;;;11.47;7.70;;;8.70;99.90;;;;;;4919201;29;20185;-90
2020/12/17 11:17:14;;;;;;;10.07;7.53;;;8.70;99.90;;;;;;4902099;29;20190;-91
2020/12/17 11:19:40;;;;;;;14.77;7.87;;;8.60;99.90;;;;;;4901388;29;20234;-91
2020/12/17 11:22:06;;;;;;;9.53;7.40;;;8.60;99.90;;;;;;4896839;29;20175;-90
2020/12/17 11:24:31;;;;;;;10.90;7.70;;;8.60;99.90;;;;;;4883592;29;20187;-90
2020/12/17 11:26:57;;;;;;;11.00;8.17;;;8.60;99.90;;;;;;4900112;29;20606;-92
2020/12/17 11:29:37;;;;;;;12.10;8.23;;;8.60;99.90;;;;;;4883233;29;20611;-90
2020/12/17 11:32:02;;;;;;;11.63;8.00;;;8.60;99.90;;;;;;4884678;29;20239;-89
2020/12/17 11:34:28;;;;;;;15.53;8.17;;;8.60;99.90;;;;;;4864843;29;20187;-88
2020/12/17 11:36:54;;;;;;;11.40;7.93;;;8.60;99.90;;;;;;4864943;29;20256;-89
2020/12/17 11:39:31;;;;;;;13.37;8.03;;;8.60;99.90;;;;;;4864567;29;20180;-91
2020/12/17 11:41:57;;;;;;;11.07;8.03;;;8.60;99.90;;;;;;4871795;29;20197;-90
2020/12/17 11:44:25;;;;;;;11.73;8.00;;;8.60;99.90;;;;;;4899665;29;20525;-90
2020/12/17 11:46:51;;;;;;;10.13;8.03;;;8.50;99.90;;;;;;4883389;29;20189;-91
2020/12/17 11:49:19;;;;;;;14.37;8.50;;;8.50;99.90;;;;;;4899791;29;20208;-88
2020/12/17 11:51:48;;;;;;;15.07;8.57;;;8.50;99.90;;;;;;4883156;29;20223;-91
2020/12/17 11:54:14;;;;;;;12.20;8.47;;;8.40;99.90;;;;;;4883252;29;20242;-92
2020/12/17 11:56:40;;;;;;;10.37;7.63;;;8.40;99.90;;;;;;4883331;29;20274;-93
2020/12/17 11:59:06;;;;;;;13.27;8.70;;;8.40;99.90;;;;;;4884086;29;20182;-93
2020/12/17 12:01:31;;;;;;;11.50;8.57;;;8.40;99.90;;;;;;4883206;29;20204;-92
2020/12/17 12:03:57;;;;;;;13.10;8.43;;;8.40;99.90;;;;;;4883150;29;20190;-90
2020/12/17 12:06:23;;;;;;;11.47;8.33;;;8.40;99.90;;;;;;4883180;29;20187;-89
2020/12/17 12:08:50;;;;;;;10.93;8.50;;;8.40;99.90;;;;;;4899753;29;20187;-89
2020/12/17 12:11:19;;;;;;;11.33;8.37;;;8.40;99.90;;;;;;4884887;29;20207;-92
2020/12/17 12:13:45;;;;;;;12.50;8.13;;;8.40;99.90;;;;;;4900909;29;20681;-93
2020/12/17 12:16:12;;;;;;;12.93;8.70;;;8.50;99.90;;;;;;4905310;29;20274;-90
2020/12/17 12:18:41;;;;;;;12.93;8.43;;;8.50;99.90;;;;;;4906652;29;20246;-93
2020/12/17 12:21:10;;;;;;;10.93;8.40;;;8.40;99.90;;;;;;4905471;29;20179;-96
2020/12/17 12:23:35;;;;;;;12.87;8.50;;;8.40;99.90;;;;;;4905448;29;20280;-95
2020/12/17 12:26:02;;;;;;;13.03;8.77;;;8.50;99.90;;;;;;4905609;29;20657;-96
2020/12/17 12:28:29;;;;;;;11.93;8.47;;;8.50;99.90;;;;;;4905568;29;20206;-96
2020/12/17 12:30:54;;;;;;;13.27;8.30;;;8.50;99.90;;;;;;4921945;29;20646;-96
2020/12/17 12:33:20;;;;;;;11.10;8.80;;;8.50;99.90;;;;;;4905461;29;20248;-96
2020/12/17 12:35:46;;;;;;;11.50;8.50;;;8.50;99.90;;;;;;4905557;29;20599;-94
2020/12/17 12:38:12;;;;;;;15.70;8.33;;;8.40;99.90;;;;;;4905026;29;20233;-94
2020/12/17 12:40:40;;;;;;;11.40;8.67;;;8.40;99.90;;;;;;4904895;29;20183;-94
2020/12/17 12:43:06;;;;;;;12.57;8.13;;;8.40;99.90;;;;;;4912152;29;20214;-94
2020/12/17 12:45:32;;;;;;;11.53;8.47;;;8.40;99.90;;;;;;4902522;29;20619;-93
2020/12/17 12:48:00;;;;;;;11.87;8.50;;;8.50;99.90;;;;;;4886116;29;20194;-90
2020/12/17 12:50:35;;;;;;;11.27;8.50;;;8.40;99.90;;;;;;4886099;29;20230;-91
2020/12/17 12:53:01;;;;;;;13.50;8.80;;;8.40;99.90;;;;;;4902846;29;20170;-90
2020/12/17 12:55:27;;;;;;;14.37;8.70;;;8.40;99.90;;;;;;4902711;29;20187;-91
2020/12/17 12:57:52;;;;;;;11.83;8.40;;;8.40;99.90;;;;;;4902580;29;20175;-90
2020/12/17 13:00:31;;;;;;;12.90;8.73;;;8.40;99.90;;;;;;4885536;29;20282;-92
2020/12/17 13:02:56;;;;;;;11.17;8.33;;;8.50;99.90;;;;;;4886074;29;20239;-95